Time,TemperatureF,DewpointF,PressureIn,WindDirection,WindDirectionDegrees,WindSpeedMPH,WindSpeedGustMPH,Humidity,HourlyPrecipIn,Conditions,Clouds,dailyrainin,SoftwareType,DateUTC
2013-09-29 00:01:00,47.5,47.5,30.27,NNW,329,2.5,2.5,100,0.00,,FEW004,0.00,VWS V14.01,2013-09-29 04:01:00,
2013-09-29 00:03:00,47.4,47.4,30.27,NNW,329,2.5,2.5,100,0.00,,FEW004,0.00,VWS V14.01,2013-09-29 04:03:00,
2013-09-29 00:07:00,47.2,47.2,30.27,NNW,329,2.5,2.5,100,0.00,,FEW004,0.00,VWS V14.01,2013-09-29 04:07:00,
2013-09-29 00:13:00,47.3,47.3,30.26,NNW,329,2.5,2.5,100,0.00,,FEW004,0.00,VWS V14.01,2013-09-29 04:13:00,
2013-09-29 00:15:00,47.3,47.3,30.26,NNW,329,2.5,2.5,100,0.00,,FEW004,0.00,VWS V14.01,2013-09-29 04:15:00,
2013-09-29 00:21:00,47.4,47.4,30.27,NNW,329,2.5,2.5,100,0.00,,FEW004,0.00,VWS V14.01,2013-09-29 04:21:00,
2013-09-29 00:27:00,47.0,47.0,30.26,NNW,329,2.5,2.5,100,0.00,,FEW004,0.00,VWS V14.01,2013-09-29 04:27:00,
2013-09-29 00:29:00,47.1,47.1,30.26,NNW,329,2.5,2.5,100,0.00,,FEW004,0.00,VWS V14.01,2013-09-29 04:29:00,
2013-09-29 00:35:00,46.8,46.8,30.26,NNW,329,2.5,2.5,100,0.00,,FEW004,0.00,VWS V14.01,2013-09-29 04:35:00,
2013-09-29 00:41:00,46.6,46.6,30.26,NNW,329,2.5,2.5,100,0.00,,FEW004,0.00,VWS V14.01,2013-09-29 04:41:00,
2013-09-29 00:47:00,46.8,46.8,30.26,NNW,329,2.5,2.5,100,0.00,,FEW004,0.00,VWS V14.01,2013-09-29 04:47:00,
2013-09-29 00:53:00,46.8,46.8,30.26,NNW,329,2.5,2.5,100,0.00,,FEW004,0.00,VWS V14.01,2013-09-29 04:53:00,
2013-09-29 00:59:00,47.1,47.1,30.26,NNW,329,2.5,2.5,100,0.00,,FEW004,0.00,VWS V14.01,2013-09-29 04:59:00,
2013-09-29 01:05:00,47.5,47.5,30.26,NNW,329,2.5,2.5,100,0.00,,FEW004,0.00,VWS V14.01,2013-09-29 05:05:00,
2013-09-29 01:11:00,47.0,47.0,30.26,NNW,329,2.5,2.5,100,0.00,,FEW004,0.00,VWS V14.01,2013-09-29 05:11:00,
2013-09-29 01:17:00,46.6,46.6,30.27,NNW,329,2.5,2.5,100,0.00,,FEW004,0.00,VWS V14.01,2013-09-29 05:17:00,
2013-09-29 01:23:00,46.1,46.1,30.26,NNW,329,2.5,2.5,100,0.00,,FEW004,0.00,VWS V14.01,2013-09-29 05:23:00,
2013-09-29 01:29:00,45.9,45.9,30.26,NNW,329,2.5,2.5,100,0.00,,FEW004,0.00,VWS V14.01,2013-09-29 05:29:00,
2013-09-29 01:35:00,45.7,45.7,30.26,NNW,329,2.5,2.5,100,0.00,,FEW004,0.00,VWS V14.01,2013-09-29 05:35:00,
2013-09-29 01:41:00,44.5,44.5,30.26,NNW,329,2.5,2.5,100,0.00,,FEW004,0.00,VWS V14.01,2013-09-29 05:41:00,
2013-09-29 01:47:00,44.2,44.2,30.26,NNW,329,2.5,2.5,100,0.00,,FEW004,0.00,VWS V14.01,2013-09-29 05:47:00,
2013-09-29 01:53:00,44.8,44.8,30.26,NNW,329,2.5,2.5,100,0.00,,FEW004,0.00,VWS V14.01,2013-09-29 05:53:00,
2013-09-29 01:59:00,45.5,45.5,30.26,NNW,329,2.5,2.5,100,0.00,,FEW004,0.00,VWS V14.01,2013-09-29 05:59:00,
2013-09-29 02:05:00,45.7,45.7,30.25,NNW,329,2.5,2.5,100,0.00,,FEW003,0.00,VWS V14.01,2013-09-29 06:05:00,
2013-09-29 02:11:00,45.2,45.2,30.25,NNW,329,2.5,2.5,100,0.00,,FEW003,0.00,VWS V14.01,2013-09-29 06:11:00,
2013-09-29 02:17:00,44.8,44.8,30.25,NNW,329,2.5,2.5,100,0.00,,FEW003,0.00,VWS V14.01,2013-09-29 06:17:00,
2013-09-29 02:23:00,44.9,44.9,30.25,NNW,329,2.5,2.5,100,0.00,,FEW003,0.00,VWS V14.01,2013-09-29 06:23:00,
2013-09-29 02:29:00,45.2,45.2,30.25,NNW,329,2.5,2.5,100,0.00,,FEW003,0.00,VWS V14.01,2013-09-29 06:29:00,
2013-09-29 02:35:00,45.4,45.4,30.25,NNW,329,2.5,2.5,100,0.00,,FEW003,0.00,VWS V14.01,2013-09-29 06:35:00,
2013-09-29 02:41:00,45.3,45.3,30.25,NNW,329,2.5,2.5,100,0.00,,FEW003,0.00,VWS V14.01,2013-09-29 06:41:00,
2013-09-29 02:47:00,45.5,45.5,30.24,NNW,329,2.5,2.5,100,0.00,,FEW003,0.00,VWS V14.01,2013-09-29 06:47:00,
2013-09-29 02:53:00,45.7,45.7,30.24,NNW,329,2.5,2.5,100,0.00,,FEW003,0.00,VWS V14.01,2013-09-29 06:53:00,
2013-09-29 02:59:00,45.1,45.1,30.24,NNW,329,2.5,2.5,100,0.00,,FEW003,0.00,VWS V14.01,2013-09-29 06:59:00,
2013-09-29 03:05:00,44.8,44.8,30.24,NNW,329,2.5,2.5,100,0.00,,FEW003,0.00,VWS V14.01,2013-09-29 07:05:00,
2013-09-29 03:11:00,43.9,43.9,30.23,NNW,329,2.5,2.5,100,0.00,,FEW003,0.00,VWS V14.01,2013-09-29 07:11:00,
2013-09-29 03:17:00,43.5,43.5,30.23,NNW,329,2.5,2.5,100,0.00,,FEW003,0.00,VWS V14.01,2013-09-29 07:17:00,
2013-09-29 03:23:00,43.8,43.8,30.23,NNW,329,2.5,2.5,100,0.00,,FEW003,0.00,VWS V14.01,2013-09-29 07:23:00,
2013-09-29 03:29:00,44.7,44.7,30.23,NNW,329,2.5,2.5,100,0.00,,FEW003,0.00,VWS V14.01,2013-09-29 07:29:00,
2013-09-29 03:35:00,44.4,44.4,30.23,NNW,329,2.5,2.5,100,0.00,,FEW003,0.00,VWS V14.01,2013-09-29 07:35:00,
2013-09-29 03:41:00,44.4,44.4,30.23,NNW,329,2.5,2.5,100,0.00,,FEW003,0.00,VWS V14.01,2013-09-29 07:41:00,
2013-09-29 03:47:00,44.4,44.4,30.23,NNW,329,2.5,2.5,100,0.00,,FEW003,0.00,VWS V14.01,2013-09-29 07:47:00,
2013-09-29 03:53:00,44.6,44.6,30.23,NNW,329,2.5,2.5,100,0.00,,FEW003,0.00,VWS V14.01,2013-09-29 07:53:00,
2013-09-29 03:59:00,44.7,44.7,30.23,NNW,329,2.5,2.5,100,0.00,,FEW003,0.00,VWS V14.01,2013-09-29 07:59:00,
2013-09-29 04:05:00,44.8,44.8,30.23,NNW,329,2.5,2.5,100,0.00,,FEW003,0.00,VWS V14.01,2013-09-29 08:05:00,
2013-09-29 04:11:00,45.2,45.2,30.23,NNW,329,2.5,2.5,100,0.00,,,0.00,VWS V14.01,2013-09-29 08:11:00,
2013-09-29 04:17:00,46.0,46.0,30.23,NNW,329,2.5,2.5,100,0.00,,,0.00,VWS V14.01,2013-09-29 08:17:00,
2013-09-29 04:23:00,46.3,46.3,30.23,NNW,329,2.5,2.5,100,0.00,,,0.00,VWS V14.01,2013-09-29 08:23:00,
2013-09-29 04:29:00,46.0,46.0,30.23,NNW,329,2.5,2.5,100,0.00,,,0.00,VWS V14.01,2013-09-29 08:29:00,
2013-09-29 04:35:00,45.7,45.7,30.23,NNW,329,2.5,2.5,100,0.00,,,0.00,VWS V14.01,2013-09-29 08:35:00,
2013-09-29 04:41:00,45.1,45.1,30.23,NNW,329,2.5,2.5,100,0.00,,,0.00,VWS V14.01,2013-09-29 08:41:00,
2013-09-29 04:49:00,45.1,45.1,30.23,NNW,329,2.5,2.5,100,0.00,,,0.00,VWS V14.01,2013-09-29 08:49:00,
2013-09-29 04:55:00,45.4,45.4,30.23,NNW,329,2.5,2.5,100,0.00,,,0.00,VWS V14.01,2013-09-29 08:55:00,
2013-09-29 05:01:00,46.1,46.1,30.23,NNW,329,2.5,2.5,100,0.00,,,0.00,VWS V14.01,2013-09-29 09:01:00,
2013-09-29 05:07:00,45.8,45.8,30.23,NNW,329,2.5,2.5,100,0.00,,,0.00,VWS V14.01,2013-09-29 09:07:00,
2013-09-29 05:13:00,44.8,44.8,30.23,NNW,329,2.5,2.5,100,0.00,,,0.00,VWS V14.01,2013-09-29 09:13:00,
2013-09-29 05:19:00,44.2,44.2,30.23,NNW,329,2.5,2.5,100,0.00,,,0.00,VWS V14.01,2013-09-29 09:19:00,
2013-09-29 05:25:00,44.4,44.4,30.23,NNW,329,2.5,2.5,100,0.00,,,0.00,VWS V14.01,2013-09-29 09:25:00,
2013-09-29 05:31:00,44.4,44.4,30.23,NNW,329,2.5,2.5,100,0.00,,,0.00,VWS V14.01,2013-09-29 09:31:00,
2013-09-29 05:37:00,44.4,44.4,30.23,NNW,329,2.5,2.5,100,0.00,,,0.00,VWS V14.01,2013-09-29 09:37:00,
2013-09-29 05:43:00,45.0,45.0,30.23,NNW,329,2.5,2.5,100,0.00,,,0.00,VWS V14.01,2013-09-29 09:43:00,
2013-09-29 05:49:00,45.2,45.2,30.23,NNW,329,2.5,2.5,100,0.00,,,0.00,VWS V14.01,2013-09-29 09:49:00,
2013-09-29 05:55:00,45.0,45.0,30.23,NNW,329,2.5,2.5,100,0.00,,,0.00,VWS V14.01,2013-09-29 09:55:00,
2013-09-29 06:01:00,44.6,44.6,30.23,NNW,329,2.5,2.5,100,0.00,,,0.00,VWS V14.01,2013-09-29 10:01:00,
2013-09-29 06:07:00,44.1,44.1,30.23,NNW,329,2.5,2.5,100,0.00,,,0.00,VWS V14.01,2013-09-29 10:07:00,
2013-09-29 06:13:00,43.7,43.7,30.23,NNW,329,2.5,2.5,100,0.00,,,0.00,VWS V14.01,2013-09-29 10:13:00,
2013-09-29 06:19:00,44.0,44.0,30.23,NNW,329,2.5,2.5,100,0.00,,,0.00,VWS V14.01,2013-09-29 10:19:00,
2013-09-29 06:25:00,44.6,44.6,30.23,NNW,329,2.5,2.5,100,0.00,,,0.00,VWS V14.01,2013-09-29 10:25:00,
2013-09-29 06:31:00,45.1,45.1,30.23,NNW,329,2.5,2.5,100,0.00,,,0.00,VWS V14.01,2013-09-29 10:31:00,
2013-09-29 06:37:00,45.3,45.3,30.23,NNW,329,2.5,2.5,100,0.00,,,0.00,VWS V14.01,2013-09-29 10:37:00,
2013-09-29 06:43:00,44.3,44.3,30.23,NNW,329,2.5,2.5,100,0.00,,,0.00,VWS V14.01,2013-09-29 10:43:00,
2013-09-29 06:49:00,44.1,44.1,30.23,NNW,329,2.5,2.5,100,0.00,,,0.00,VWS V14.01,2013-09-29 10:49:00,
2013-09-29 06:55:00,44.3,44.3,30.23,NNW,329,2.5,2.5,100,0.00,,,0.00,VWS V14.01,2013-09-29 10:55:00,
2013-09-29 07:01:00,43.7,43.7,30.23,NNW,329,2.5,2.5,100,0.00,,,0.00,VWS V14.01,2013-09-29 11:01:00,
2013-09-29 07:07:00,43.7,43.7,30.23,NNW,329,2.5,2.5,100,0.00,,,0.00,VWS V14.01,2013-09-29 11:07:00,
2013-09-29 07:13:00,44.2,44.2,30.23,NNW,329,2.5,2.5,100,0.00,,,0.00,VWS V14.01,2013-09-29 11:13:00,
2013-09-29 07:19:00,44.7,44.7,30.23,NNW,329,2.5,2.5,100,0.00,,,0.00,VWS V14.01,2013-09-29 11:19:00,
2013-09-29 07:25:00,45.5,45.5,30.23,NNW,329,2.5,2.5,100,0.00,,,0.00,VWS V14.01,2013-09-29 11:25:00,
2013-09-29 07:31:00,46.3,46.3,30.23,NNW,329,2.5,2.5,100,0.00,,,0.00,VWS V14.01,2013-09-29 11:31:00,
2013-09-29 07:37:00,45.8,45.8,30.23,NNW,329,2.5,2.5,100,0.00,,,0.00,VWS V14.01,2013-09-29 11:37:00,
2013-09-29 07:43:00,46.1,46.1,30.23,NNW,329,2.5,2.5,100,0.00,,,0.00,VWS V14.01,2013-09-29 11:43:00,
2013-09-29 07:49:00,47.0,47.0,30.23,NNW,329,2.5,2.5,100,0.00,,,0.00,VWS V14.01,2013-09-29 11:49:00,
2013-09-29 07:55:00,48.4,48.4,30.23,NNW,329,2.5,2.5,100,0.00,,,0.00,VWS V14.01,2013-09-29 11:55:00,
2013-09-29 08:01:00,48.5,48.5,30.23,NNW,329,2.5,2.5,100,0.00,,,0.00,VWS V14.01,2013-09-29 12:01:00,
2013-09-29 08:07:00,49.4,49.4,30.23,NNW,329,2.5,2.5,100,0.00,,,0.00,VWS V14.01,2013-09-29 12:07:00,
2013-09-29 08:13:00,50.7,50.7,30.23,NNW,329,2.5,2.5,100,0.00,,,0.00,VWS V14.01,2013-09-29 12:13:00,
2013-09-29 08:19:00,51.7,51.7,30.23,South,170,2.5,4.8,100,0.00,,,0.00,VWS V14.01,2013-09-29 12:19:00,
2013-09-29 08:25:00,52.8,52.8,30.23,SSE,149,5.9,8.6,100,0.00,,,0.00,VWS V14.01,2013-09-29 12:25:00,
2013-09-29 08:31:00,53.5,53.5,30.23,NE,38,3.2,7.8,100,0.00,,,0.00,VWS V14.01,2013-09-29 12:31:00,
2013-09-29 08:37:00,54.1,54.1,30.23,South,173,5.7,6.2,100,0.00,,,0.00,VWS V14.01,2013-09-29 12:37:00,
2013-09-29 08:43:00,54.8,54.8,30.23,ESE,111,5.4,7.4,100,0.00,,,0.00,VWS V14.01,2013-09-29 12:43:00,
2013-09-29 08:49:00,55.6,55.6,30.24,SSE,163,7.3,7.8,100,0.00,,,0.00,VWS V14.01,2013-09-29 12:49:00,
2013-09-29 08:55:00,55.7,55.7,30.24,SSE,156,6.1,6.8,100,0.00,,,0.00,VWS V14.01,2013-09-29 12:55:00,
2013-09-29 09:01:00,56.0,56.0,30.24,NE,39,3.1,6.2,100,0.00,,,0.00,VWS V14.01,2013-09-29 13:01:00,
2013-09-29 09:07:00,56.0,56.0,30.24,SSE,149,6.9,8.5,100,0.00,,,0.00,VWS V14.01,2013-09-29 13:07:00,
2013-09-29 09:13:00,56.0,56.0,30.24,ENE,73,2.5,2.5,100,0.00,,,0.00,VWS V14.01,2013-09-29 13:13:00,
2013-09-29 09:19:00,56.3,56.3,30.24,SE,127,3.9,6.9,100,0.00,,,0.00,VWS V14.01,2013-09-29 13:19:00,
2013-09-29 09:25:00,56.7,56.7,30.24,SE,124,5.2,8.8,100,0.00,,,0.00,VWS V14.01,2013-09-29 13:25:00,
2013-09-29 09:31:00,57.2,57.2,30.24,SSE,152,7.0,7.6,100,0.00,,,0.00,VWS V14.01,2013-09-29 13:31:00,
2013-09-29 09:37:00,57.2,57.2,30.24,SE,134,8.2,9.7,100,0.00,,,0.00,VWS V14.01,2013-09-29 13:37:00,
2013-09-29 09:43:00,58.0,57.6,30.24,SE,146,9.0,10.4,98,0.00,,,0.00,VWS V14.01,2013-09-29 13:43:00,
2013-09-29 09:49:00,57.7,57.6,30.25,ESE,108,2.9,4.4,100,0.00,,,0.00,VWS V14.01,2013-09-29 13:49:00,
2013-09-29 09:55:00,58.9,58.1,30.25,SSE,158,6.1,10.3,97,0.00,,,0.00,VWS V14.01,2013-09-29 13:55:00,
2013-09-29 10:01:00,59.1,58.1,30.24,North,7,6.5,10.0,96,0.00,,BKN004,0.00,VWS V14.01,2013-09-29 14:01:00,
2013-09-29 10:07:00,58.8,57.6,30.24,SE,136,7.5,10.3,96,0.00,,BKN004,0.00,VWS V14.01,2013-09-29 14:07:00,
2013-09-29 10:15:00,58.5,57.0,30.24,SE,125,7.3,11.0,95,0.00,,BKN004,0.00,VWS V14.01,2013-09-29 14:15:00,
2013-09-29 10:21:00,59.4,58.1,30.23,North,6,5.3,5.3,95,0.00,,BKN005,0.00,VWS V14.01,2013-09-29 14:21:00,
2013-09-29 10:27:00,58.7,57.7,30.24,ENE,69,5.4,5.9,96,0.00,,BKN005,0.00,VWS V14.01,2013-09-29 14:27:00,
2013-09-29 10:33:00,59.6,57.4,30.24,SE,128,5.8,8.5,92,0.00,,BKN005,0.00,VWS V14.01,2013-09-29 14:33:00,
2013-09-29 10:39:00,60.2,57.3,30.23,SSE,166,8.7,9.8,90,0.00,,BKN005,0.00,VWS V14.01,2013-09-29 14:39:00,
2013-09-29 10:45:00,59.7,57.0,30.24,ESE,108,3.7,7.9,91,0.00,,BKN005,0.00,VWS V14.01,2013-09-29 14:45:00,
2013-09-29 10:51:00,60.4,57.3,30.24,SSE,150,7.0,9.6,90,0.00,,SCT006,0.00,VWS V14.01,2013-09-29 14:51:00,
2013-09-29 10:57:00,59.9,57.0,30.24,SE,129,6.5,11.9,90,0.00,,SCT006,0.00,VWS V14.01,2013-09-29 14:57:00,
2013-09-29 11:03:00,61.0,56.7,30.23,East,80,3.6,5.7,86,0.00,,FEW005,0.00,VWS V14.01,2013-09-29 15:03:00,
2013-09-29 11:09:00,59.8,56.9,30.23,NNE,27,2.5,4.2,90,0.00,,FEW005,0.00,VWS V14.01,2013-09-29 15:09:00,
2013-09-29 11:15:00,60.4,55.8,30.23,SSE,158,4.1,9.0,85,0.00,,FEW005,0.00,VWS V14.01,2013-09-29 15:15:00,
2013-09-29 11:21:00,60.0,56.7,30.23,NNE,17,4.1,4.7,89,0.00,,FEW005,0.00,VWS V14.01,2013-09-29 15:21:00,
2013-09-29 11:27:00,60.6,55.9,30.22,SSE,163,5.4,9.1,85,0.00,,FEW005,0.00,VWS V14.01,2013-09-29 15:27:00,
2013-09-29 11:33:00,60.0,57.0,30.22,NW,326,3.0,4.5,90,0.00,,FEW005,0.00,VWS V14.01,2013-09-29 15:33:00,
2013-09-29 11:39:00,60.4,56.4,30.21,SSE,153,7.8,10.1,86,0.00,,FEW005,0.00,VWS V14.01,2013-09-29 15:39:00,
2013-09-29 11:45:00,60.8,56.4,30.21,SE,135,7.4,9.5,85,0.00,,FEW005,0.00,VWS V14.01,2013-09-29 15:45:00,
2013-09-29 11:51:00,61.3,56.9,30.21,SSE,149,10.1,11.7,85,0.00,,FEW005,0.00,VWS V14.01,2013-09-29 15:51:00,
2013-09-29 11:57:00,60.5,56.7,30.21,North,6,4.5,6.0,87,0.00,,FEW005,0.00,VWS V14.01,2013-09-29 15:57:00,
2013-09-29 12:03:00,60.8,56.5,30.21,East,80,5.1,10.0,86,0.00,,SCT250,0.00,VWS V14.01,2013-09-29 16:03:00,
2013-09-29 12:09:00,61.0,56.1,30.21,North,0,4.4,6.8,84,0.00,,SCT250,0.00,VWS V14.01,2013-09-29 16:09:00,
2013-09-29 12:15:00,60.8,56.4,30.21,SSE,155,8.3,8.3,85,0.00,,SCT250,0.00,VWS V14.01,2013-09-29 16:15:00,
2013-09-29 12:21:00,61.1,56.6,30.21,East,98,2.9,8.0,85,0.00,,SCT250,0.00,VWS V14.01,2013-09-29 16:21:00,
2013-09-29 12:27:00,59.6,56.2,30.21,East,91,3.6,5.9,88,0.00,,SCT250,0.00,VWS V14.01,2013-09-29 16:27:00,
2013-09-29 12:33:00,61.3,56.4,30.21,NE,49,4.8,6.0,84,0.00,,SCT250,0.00,VWS V14.01,2013-09-29 16:33:00,
2013-09-29 12:39:00,60.6,55.7,30.21,NNW,329,3.0,5.2,84,0.00,,SCT250,0.00,VWS V14.01,2013-09-29 16:39:00,
2013-09-29 12:45:00,60.6,55.1,30.21,ENE,70,5.5,10.0,82,0.00,,SCT250,0.00,VWS V14.01,2013-09-29 16:45:00,
2013-09-29 12:51:00,61.2,56.4,30.21,ENE,60,3.6,5.1,84,0.00,,SCT250,0.00,VWS V14.01,2013-09-29 16:51:00,
2013-09-29 12:57:00,60.9,55.9,30.21,NNW,346,2.5,5.6,84,0.00,,SCT250,0.00,VWS V14.01,2013-09-29 16:57:00,
2013-09-29 13:03:00,61.1,55.8,30.21,NE,52,4.2,5.6,83,0.00,,SCT300,0.00,VWS V14.01,2013-09-29 17:03:00,
2013-09-29 13:09:00,60.4,56.3,30.21,NNE,32,2.5,6.0,86,0.00,,SCT300,0.00,VWS V14.01,2013-09-29 17:09:00,
2013-09-29 13:15:00,60.0,55.7,30.20,NNE,18,2.9,5.6,86,0.00,,SCT300,0.00,VWS V14.01,2013-09-29 17:15:00,
2013-09-29 13:21:00,60.9,56.8,30.20,NNE,32,3.6,5.2,86,0.00,,SCT300,0.00,VWS V14.01,2013-09-29 17:21:00,
2013-09-29 13:27:00,60.1,56.7,30.20,ESE,110,4.2,6.2,88,0.00,,SCT300,0.00,VWS V14.01,2013-09-29 17:27:00,
2013-09-29 13:33:00,61.6,56.2,30.20,SSE,159,6.4,9.6,82,0.00,,SCT300,0.00,VWS V14.01,2013-09-29 17:33:00,
2013-09-29 13:39:00,61.9,56.3,30.20,NNW,336,4.1,8.7,82,0.00,,SCT300,0.00,VWS V14.01,2013-09-29 17:39:00,
2013-09-29 13:45:00,61.1,57.0,30.19,NE,56,4.3,5.5,86,0.00,,SCT300,0.00,VWS V14.01,2013-09-29 17:45:00,
2013-09-29 13:51:00,61.5,56.0,30.19,South,173,5.2,10.8,82,0.00,,SCT300,0.00,VWS V14.01,2013-09-29 17:51:00,
2013-09-29 13:57:00,60.4,56.1,30.19,East,96,4.6,4.6,86,0.00,,SCT300,0.00,VWS V14.01,2013-09-29 17:57:00,
2013-09-29 14:03:00,61.1,55.3,30.19,NNE,22,3.4,10.4,81,0.00,,SCT120,0.00,VWS V14.01,2013-09-29 18:03:00,
2013-09-29 14:09:00,61.4,56.8,30.18,South,180,7.8,8.2,85,0.00,,SCT120,0.00,VWS V14.01,2013-09-29 18:09:00,
2013-09-29 14:15:00,59.8,56.3,30.18,NE,42,5.8,7.0,88,0.00,,SCT120,0.00,VWS V14.01,2013-09-29 18:15:00,
2013-09-29 14:21:00,59.3,56.9,30.18,SE,128,4.8,7.6,92,0.00,,SCT120,0.00,VWS V14.01,2013-09-29 18:21:00,
2013-09-29 14:27:00,60.1,56.4,30.18,NE,41,3.2,5.0,88,0.00,,SCT120,0.00,VWS V14.01,2013-09-29 18:27:00,
2013-09-29 14:33:00,59.0,56.0,30.18,NNE,18,4.5,5.0,90,0.00,,SCT120,0.00,VWS V14.01,2013-09-29 18:33:00,
2013-09-29 14:39:00,58.8,55.9,30.18,North,0,3.6,5.9,90,0.00,,SCT120,0.00,VWS V14.01,2013-09-29 18:39:00,
2013-09-29 14:45:00,59.2,57.0,30.18,SSW,201,3.3,5.0,92,0.00,,SCT120,0.00,VWS V14.01,2013-09-29 18:45:00,
2013-09-29 14:51:00,58.9,56.3,30.17,NE,34,3.6,6.3,91,0.00,,SCT120,0.00,VWS V14.01,2013-09-29 18:51:00,
2013-09-29 14:57:00,58.8,57.0,30.17,North,6,2.5,5.4,94,0.00,,SCT120,0.00,VWS V14.01,2013-09-29 18:57:00,
2013-09-29 15:03:00,58.4,56.5,30.17,East,80,3.7,7.6,94,0.00,,SCT120,0.00,VWS V14.01,2013-09-29 19:03:00,
2013-09-29 15:09:00,58.7,56.4,30.17,SE,142,4.7,7.2,92,0.00,,SCT120,0.00,VWS V14.01,2013-09-29 19:09:00,
2013-09-29 15:15:00,59.0,57.0,30.17,East,91,4.4,6.8,93,0.00,,SCT120,0.00,VWS V14.01,2013-09-29 19:15:00,
2013-09-29 15:21:00,59.3,56.5,30.17,NE,34,3.6,4.9,90,0.00,,SCT120,0.00,VWS V14.01,2013-09-29 19:21:00,
2013-09-29 15:27:00,58.6,56.8,30.17,ENE,75,3.4,6.2,94,0.00,,SCT120,0.00,VWS V14.01,2013-09-29 19:27:00,
2013-09-29 15:33:00,59.0,56.6,30.17,ESE,110,2.5,8.5,92,0.00,,SCT120,0.00,VWS V14.01,2013-09-29 19:33:00,
2013-09-29 15:39:00,58.4,56.7,30.17,NE,53,3.2,5.5,94,0.00,,SCT120,0.00,VWS V14.01,2013-09-29 19:39:00,
2013-09-29 15:45:00,58.2,56.9,30.17,ENE,66,3.8,6.1,96,0.00,,SCT120,0.00,VWS V14.01,2013-09-29 19:45:00,
2013-09-29 15:51:00,58.7,57.0,30.17,South,177,5.7,9.1,94,0.00,,SCT120,0.00,VWS V14.01,2013-09-29 19:51:00,
2013-09-29 15:57:00,58.6,57.0,30.16,SE,135,8.7,8.9,94,0.00,,SCT120,0.00,VWS V14.01,2013-09-29 19:57:00,
2013-09-29 16:03:00,58.5,57.0,30.16,NW,321,5.2,5.2,95,0.00,,SCT120,0.00,VWS V14.01,2013-09-29 20:03:00,
2013-09-29 16:09:00,58.7,57.1,30.16,NNE,17,2.5,3.8,94,0.00,,SCT120,0.00,VWS V14.01,2013-09-29 20:09:00,
2013-09-29 16:15:00,58.8,57.3,30.16,SSE,163,7.1,7.1,95,0.00,,SCT120,0.00,VWS V14.01,2013-09-29 20:15:00,
2013-09-29 16:21:00,58.7,57.4,30.16,East,89,3.0,5.4,95,0.00,,SCT120,0.00,VWS V14.01,2013-09-29 20:21:00,
2013-09-29 16:27:00,58.7,57.3,30.16,NE,49,3.5,3.7,95,0.00,,SCT120,0.00,VWS V14.01,2013-09-29 20:27:00,
2013-09-29 16:33:00,58.8,57.5,30.16,NE,56,5.0,7.1,96,0.00,,SCT120,0.00,VWS V14.01,2013-09-29 20:33:00,
2013-09-29 16:39:00,59.4,57.6,30.16,SSE,158,6.6,8.0,94,0.00,,SCT120,0.00,VWS V14.01,2013-09-29 20:39:00,
2013-09-29 16:45:00,59.3,57.5,30.15,SE,143,8.5,9.2,94,0.00,,SCT120,0.00,VWS V14.01,2013-09-29 20:45:00,
2013-09-29 16:51:00,60.5,58.6,30.15,SE,127,3.4,3.7,93,0.00,,SCT120,0.00,VWS V14.01,2013-09-29 20:51:00,
2013-09-29 16:57:00,61.0,58.0,30.16,SSE,159,2.5,6.7,90,0.00,,SCT120,0.00,VWS V14.01,2013-09-29 20:57:00,
2013-09-29 17:03:00,60.3,58.0,30.15,NNE,27,2.5,6.3,92,0.00,,FEW120,0.00,VWS V14.01,2013-09-29 21:03:00,
2013-09-29 17:09:00,63.0,58.8,30.15,NNE,22,2.5,2.5,86,0.00,,FEW120,0.00,VWS V14.01,2013-09-29 21:09:00,
2013-09-29 17:15:00,63.3,58.6,30.15,SSE,153,5.6,6.0,85,0.00,,FEW120,0.00,VWS V14.01,2013-09-29 21:15:00,
2013-09-29 17:21:00,62.8,58.0,30.15,NE,56,3.3,4.2,84,0.00,,FEW120,0.00,VWS V14.01,2013-09-29 21:21:00,
2013-09-29 17:27:00,60.2,57.6,30.15,SE,125,6.2,8.2,91,0.00,,FEW120,0.00,VWS V14.01,2013-09-29 21:27:00,
2013-09-29 17:33:00,57.3,56.8,30.15,ENE,75,3.1,3.1,98,0.00,,FEW120,0.00,VWS V14.01,2013-09-29 21:33:00,
2013-09-29 17:39:00,56.7,56.6,30.16,NW,316,2.5,4.1,100,0.00,,FEW120,0.00,VWS V14.01,2013-09-29 21:39:00,
2013-09-29 17:45:00,56.2,56.2,30.15,NE,56,2.5,3.2,100,0.00,,FEW120,0.00,VWS V14.01,2013-09-29 21:45:00,
2013-09-29 17:51:00,55.8,55.8,30.15,NNE,15,2.5,4.0,100,0.00,,FEW120,0.00,VWS V14.01,2013-09-29 21:51:00,
2013-09-29 17:57:00,55.5,55.5,30.15,NNE,15,2.5,2.5,100,0.00,,FEW120,0.00,VWS V14.01,2013-09-29 21:57:00,
2013-09-29 18:03:00,55.2,55.2,30.15,NNE,15,2.5,2.5,100,0.00,,FEW120,0.00,VWS V14.01,2013-09-29 22:03:00,
2013-09-29 18:09:00,55.0,55.0,30.15,East,86,2.5,3.5,100,0.00,,FEW120,0.00,VWS V14.01,2013-09-29 22:09:00,
2013-09-29 18:15:00,54.6,54.6,30.15,SE,135,2.5,2.5,100,0.00,,FEW120,0.00,VWS V14.01,2013-09-29 22:15:00,
2013-09-29 18:21:00,54.2,54.2,30.15,SE,135,2.5,2.5,100,0.00,,FEW120,0.00,VWS V14.01,2013-09-29 22:21:00,
2013-09-29 18:27:00,54.0,54.0,30.15,SE,135,2.5,2.5,100,0.00,,FEW120,0.00,VWS V14.01,2013-09-29 22:27:00,
2013-09-29 18:33:00,53.8,53.8,30.15,SE,135,2.5,2.5,100,0.00,,FEW120,0.00,VWS V14.01,2013-09-29 22:33:00,
2013-09-29 18:39:00,53.3,53.3,30.15,SE,135,2.5,2.5,100,0.00,,FEW120,0.00,VWS V14.01,2013-09-29 22:39:00,
2013-09-29 18:45:00,53.3,53.3,30.15,SE,135,2.5,2.5,100,0.00,,FEW120,0.00,VWS V14.01,2013-09-29 22:45:00,
2013-09-29 18:51:00,53.0,53.0,30.15,SE,135,2.5,2.5,100,0.00,,FEW120,0.00,VWS V14.01,2013-09-29 22:51:00,
2013-09-29 18:57:00,52.7,52.7,30.15,SE,135,2.5,2.5,100,0.00,,FEW120,0.00,VWS V14.01,2013-09-29 22:57:00,
2013-09-29 19:03:00,52.5,52.5,30.15,SE,135,2.5,2.5,100,0.00,,FEW120,0.00,VWS V14.01,2013-09-29 23:03:00,
2013-09-29 19:11:00,52.3,52.3,30.15,SE,135,2.5,2.5,100,0.00,,FEW120,0.00,VWS V14.01,2013-09-29 23:11:00,
2013-09-29 19:17:00,51.9,51.9,30.15,SE,135,2.5,2.5,100,0.00,,FEW120,0.00,VWS V14.01,2013-09-29 23:17:00,
2013-09-29 19:23:00,51.8,51.8,30.15,SE,135,2.5,2.5,100,0.00,,FEW120,0.00,VWS V14.01,2013-09-29 23:23:00,
2013-09-29 19:29:00,52.1,52.1,30.15,SE,135,2.5,2.5,100,0.00,,FEW120,0.00,VWS V14.01,2013-09-29 23:29:00,
2013-09-29 19:35:00,52.0,52.0,30.15,SE,135,2.5,2.5,100,0.00,,FEW120,0.00,VWS V14.01,2013-09-29 23:35:00,
2013-09-29 19:41:00,52.0,52.0,30.15,SE,134,2.5,4.3,100,0.00,,FEW120,0.00,VWS V14.01,2013-09-29 23:41:00,
2013-09-29 19:47:00,51.9,51.9,30.15,SE,134,2.5,2.5,100,0.00,,FEW120,0.00,VWS V14.01,2013-09-29 23:47:00,
2013-09-29 19:53:00,51.3,51.3,30.15,SE,134,2.5,2.5,100,0.00,,FEW120,0.00,VWS V14.01,2013-09-29 23:53:00,
2013-09-29 19:59:00,51.2,51.2,30.15,SE,134,2.5,2.5,100,0.00,,FEW120,0.00,VWS V14.01,2013-09-29 23:59:00,
2013-09-29 20:05:00,50.7,50.7,30.15,ESE,103,2.5,3.0,100,0.00,,FEW120,0.00,VWS V14.01,2013-09-30 00:05:00,
2013-09-29 20:11:00,50.6,50.6,30.15,SE,127,3.4,3.9,100,0.00,,FEW120,0.00,VWS V14.01,2013-09-30 00:11:00,
2013-09-29 20:17:00,50.9,50.9,30.15,SE,127,2.5,2.5,100,0.00,,FEW120,0.00,VWS V14.01,2013-09-30 00:17:00,
2013-09-29 20:23:00,51.0,51.0,30.14,SE,127,2.5,2.5,100,0.00,,FEW120,0.00,VWS V14.01,2013-09-30 00:23:00,
2013-09-29 20:29:00,51.0,51.0,30.14,SE,127,2.5,2.5,100,0.00,,FEW120,0.00,VWS V14.01,2013-09-30 00:29:00,
2013-09-29 20:35:00,51.2,51.2,30.14,SE,127,2.5,2.5,100,0.00,,FEW120,0.00,VWS V14.01,2013-09-30 00:35:00,
2013-09-29 20:41:00,51.1,51.1,30.14,SE,129,2.5,2.5,100,0.00,,FEW120,0.00,VWS V14.01,2013-09-30 00:41:00,
2013-09-29 20:47:00,51.1,51.1,30.14,SE,129,2.5,2.5,100,0.00,,FEW120,0.00,VWS V14.01,2013-09-30 00:47:00,
2013-09-29 20:53:00,51.3,51.3,30.14,ENE,66,2.5,4.1,100,0.00,,FEW120,0.00,VWS V14.01,2013-09-30 00:53:00,
2013-09-29 20:59:00,51.3,51.3,30.14,East,100,2.5,2.5,100,0.00,,FEW120,0.00,VWS V14.01,2013-09-30 00:59:00,
2013-09-29 21:05:00,51.4,51.4,30.13,SE,124,4.4,6.0,100,0.00,,CLR,0.00,VWS V14.01,2013-09-30 01:05:00,
2013-09-29 21:11:00,52.1,52.1,30.13,ESE,111,2.5,2.5,100,0.00,,CLR,0.00,VWS V14.01,2013-09-30 01:11:00,
2013-09-29 21:17:00,51.9,51.9,30.13,ESE,111,2.5,2.5,100,0.00,,CLR,0.00,VWS V14.01,2013-09-30 01:17:00,
2013-09-29 21:23:00,52.0,52.0,30.13,ESE,111,2.5,2.5,100,0.00,,CLR,0.00,VWS V14.01,2013-09-30 01:23:00,
2013-09-29 21:29:00,52.2,52.2,30.13,ESE,111,2.5,2.5,100,0.00,,CLR,0.00,VWS V14.01,2013-09-30 01:29:00,
2013-09-29 21:35:00,52.4,52.4,30.13,ESE,111,2.5,2.5,100,0.00,,CLR,0.00,VWS V14.01,2013-09-30 01:35:00,
2013-09-29 21:41:00,52.4,52.4,30.13,ESE,111,2.5,2.5,100,0.00,,CLR,0.00,VWS V14.01,2013-09-30 01:41:00,
2013-09-29 21:47:00,52.5,52.5,30.13,ESE,111,2.5,2.5,100,0.00,,CLR,0.00,VWS V14.01,2013-09-30 01:47:00,
2013-09-29 21:53:00,53.1,53.1,30.13,ESE,111,2.5,2.5,100,0.00,,CLR,0.00,VWS V14.01,2013-09-30 01:53:00,
2013-09-29 21:59:00,53.0,53.0,30.13,ESE,111,2.5,2.5,100,0.00,,BKN011,0.00,VWS V14.01,2013-09-30 01:59:00,
2013-09-29 22:05:00,53.2,53.2,30.13,ESE,111,2.5,2.5,100,0.00,,SCT011,0.00,VWS V14.01,2013-09-30 02:05:00,
2013-09-29 22:11:00,53.9,53.9,30.13,ESE,111,2.5,2.5,100,0.00,,SCT011,0.00,VWS V14.01,2013-09-30 02:11:00,
2013-09-29 22:17:00,54.1,54.1,30.13,ESE,111,2.5,2.5,100,0.00,,SCT011,0.00,VWS V14.01,2013-09-30 02:17:00,
2013-09-29 22:23:00,54.3,54.3,30.13,ESE,111,2.5,2.5,100,0.00,,SCT011,0.00,VWS V14.01,2013-09-30 02:23:00,
2013-09-29 22:29:00,54.0,54.0,30.12,ESE,112,2.5,3.9,100,0.00,,SCT011,0.00,VWS V14.01,2013-09-30 02:29:00,
2013-09-29 22:35:00,53.9,53.9,30.12,ESE,112,2.5,2.5,100,0.00,,BKN011,0.00,VWS V14.01,2013-09-30 02:35:00,
2013-09-29 22:41:00,54.0,54.0,30.13,ESE,112,2.5,2.5,100,0.00,,BKN011,0.00,VWS V14.01,2013-09-30 02:41:00,
2013-09-29 22:47:00,54.6,54.6,30.13,ESE,110,3.1,4.4,100,0.00,,BKN011,0.00,VWS V14.01,2013-09-30 02:47:00,
2013-09-29 22:53:00,54.5,54.5,30.13,South,181,2.5,2.5,100,0.00,,BKN011,0.00,VWS V14.01,2013-09-30 02:53:00,
2013-09-29 22:59:00,54.6,54.6,30.13,South,181,2.5,2.5,100,0.00,,BKN011,0.00,VWS V14.01,2013-09-30 02:59:00,
2013-09-29 23:05:00,54.8,54.8,30.13,South,181,2.5,2.5,100,0.00,,SCT011,0.00,VWS V14.01,2013-09-30 03:05:00,
2013-09-29 23:11:00,54.9,54.9,30.13,South,181,2.5,2.5,100,0.00,,SCT011,0.00,VWS V14.01,2013-09-30 03:11:00,
2013-09-29 23:17:00,54.8,54.8,30.13,South,181,2.5,2.5,100,0.00,,SCT011,0.00,VWS V14.01,2013-09-30 03:17:00,
2013-09-29 23:23:00,54.6,54.6,30.13,South,181,2.5,2.5,100,0.00,,BKN011,0.00,VWS V14.01,2013-09-30 03:23:00,
2013-09-29 23:29:00,54.1,54.1,30.13,South,181,2.5,2.5,100,0.00,,BKN011,0.00,VWS V14.01,2013-09-30 03:29:00,
2013-09-29 23:35:00,54.2,54.2,30.13,South,181,2.5,2.5,100,0.00,,BKN011,0.00,VWS V14.01,2013-09-30 03:35:00,
2013-09-29 23:41:00,54.2,54.2,30.12,South,181,2.5,2.5,100,0.00,,BKN011,0.00,VWS V14.01,2013-09-30 03:41:00,
2013-09-29 23:47:00,54.2,54.2,30.12,South,181,2.5,2.5,100,0.00,,BKN011,0.00,VWS V14.01,2013-09-30 03:47:00,
2013-09-29 23:53:00,54.4,54.4,30.12,South,181,2.5,2.5,100,0.00,,BKN011,0.00,VWS V14.01,2013-09-30 03:53:00,